createdAt,value
2018-10-09T00:00:52.721Z,99.99
2018-10-09T00:01:52.887Z,99.99
2018-10-09T00:02:52.777Z,99.99
2018-10-09T00:03:52.817Z,99.99
2018-10-09T00:04:52.847Z,99.99
2018-10-09T00:05:52.919Z,99.99
2018-10-09T00:06:52.952Z,99.99
2018-10-09T00:07:53.083Z,99.99
2018-10-09T00:08:53.062Z,99.99
2018-10-09T00:09:53.096Z,99.99
2018-10-09T00:10:53.125Z,99.99
2018-10-09T00:11:53.187Z,99.99
2018-10-09T00:12:53.207Z,99.99
2018-10-09T00:13:53.564Z,99.99
2018-10-09T00:14:53.355Z,99.99
2018-10-09T00:15:53.367Z,99.99
2018-10-09T00:16:53.404Z,99.99
2018-10-09T00:17:53.427Z,99.99
2018-10-09T00:18:53.623Z,99.99
2018-10-09T00:19:53.529Z,99.99
2018-10-09T00:20:53.563Z,99.99
2018-10-09T00:21:53.640Z,99.99
2018-10-09T00:22:53.665Z,99.99
2018-10-09T00:23:53.717Z,99.99
2018-10-09T00:24:53.742Z,99.99
2018-10-09T00:25:53.838Z,99.99
2018-10-09T00:26:53.871Z,99.99
2018-10-09T00:27:53.899Z,99.99
2018-10-09T00:28:53.920Z,99.99
2018-10-09T00:29:54.081Z,99.99
2018-10-09T00:30:54.033Z,99.99
2018-10-09T00:31:54.066Z,99.99
2018-10-09T00:32:54.094Z,99.99
2018-10-09T00:33:54.149Z,99.99
2018-10-09T00:34:54.224Z,99.99
2018-10-09T00:35:54.258Z,99.99
2018-10-09T00:36:54.299Z,99.99
2018-10-09T00:37:54.344Z,99.99
2018-10-09T00:38:54.435Z,99.99
2018-10-09T00:39:54.514Z,99.99
2018-10-09T00:40:54.491Z,99.99
2018-10-09T00:41:54.513Z,99.99
2018-10-09T00:42:54.568Z,99.99
2018-10-09T00:43:54.655Z,99.99
2018-10-09T00:44:54.676Z,99.99
2018-10-09T00:45:54.703Z,99.99
2018-10-09T00:46:54.765Z,99.99
2018-10-09T00:47:54.796Z,99.99
2018-10-09T00:48:54.839Z,99.99
2018-10-09T00:49:55.078Z,99.99
2018-10-09T00:50:54.941Z,99.99
2018-10-09T00:51:54.975Z,99.99
2018-10-09T00:52:55.015Z,99.99
2018-10-09T00:53:55.058Z,99.99
2018-10-09T00:54:55.116Z,99.99
2018-10-09T00:55:55.298Z,99.99
2018-10-09T00:56:55.185Z,99.99
2018-10-09T00:57:55.253Z,99.99
2018-10-09T00:58:55.274Z,99.99
2018-10-09T00:59:55.347Z,99.99
2018-10-09T01:00:55.387Z,99.99
2018-10-09T01:01:55.419Z,99.99
2018-10-09T01:02:55.461Z,99.99
2018-10-09T01:03:55.502Z,99.99
2018-10-09T01:04:55.587Z,99.99
2018-10-09T01:05:55.617Z,99.99
2018-10-09T01:06:55.799Z,99.99
2018-10-09T01:07:55.732Z,99.99
2018-10-09T01:08:55.741Z,99.99
2018-10-09T01:09:55.768Z,99.99
2018-10-09T01:10:55.814Z,99.99
2018-10-09T01:11:55.961Z,99.99
2018-10-09T01:12:55.908Z,99.99
2018-10-09T01:13:55.967Z,99.99
2018-10-09T01:14:56.059Z,99.99
2018-10-09T01:15:56.096Z,99.99
2018-10-09T01:16:56.098Z,99.99
2018-10-09T01:17:56.198Z,99.99
2018-10-09T01:18:56.171Z,99.99
2018-10-09T01:19:56.284Z,99.99
2018-10-09T01:20:56.281Z,99.99
2018-10-09T01:21:56.328Z,99.99
2018-10-09T01:22:56.392Z,99.99
2018-10-09T01:23:56.425Z,99.99
2018-10-09T01:24:56.478Z,99.99
2018-10-09T01:25:56.488Z,99.99
2018-10-09T01:26:56.564Z,99.99
2018-10-09T01:27:56.691Z,99.99
2018-10-09T01:28:56.705Z,99.99
2018-10-09T01:29:56.675Z,99.99
2018-10-09T01:30:56.730Z,99.99
2018-10-09T01:31:56.805Z,99.99
2018-10-09T01:32:56.827Z,99.99
2018-10-09T01:33:56.953Z,99.99
2018-10-09T01:34:56.981Z,99.99
2018-10-09T01:35:56.963Z,99.99
2018-10-09T01:36:57.017Z,99.99
2018-10-09T01:37:57.052Z,99.99
2018-10-09T01:38:57.104Z,99.99
2018-10-09T01:39:57.250Z,99.99
2018-10-09T01:40:57.173Z,99.99
2018-10-09T01:41:57.235Z,99.99
2018-10-09T01:42:57.261Z,99.99
2018-10-09T01:43:57.295Z,99.99
2018-10-09T01:44:57.361Z,99.99
2018-10-09T01:45:57.499Z,99.99
2018-10-09T01:46:57.451Z,99.99
2018-10-09T01:47:57.509Z,99.99
2018-10-09T01:48:57.535Z,99.99
2018-10-09T01:49:57.591Z,99.99
2018-10-09T01:50:57.620Z,99.99
2018-10-09T01:51:57.771Z,99.99
2018-10-09T01:52:57.716Z,99.99
2018-10-09T01:53:57.764Z,99.99
2018-10-09T01:54:57.805Z,99.99
2018-10-09T01:55:57.849Z,99.99
2018-10-09T01:56:57.894Z,99.99
2018-10-09T01:57:58.044Z,99.99
2018-10-09T01:58:57.969Z,99.99
2018-10-09T01:59:58.005Z,99.99
2018-10-09T02:00:58.128Z,99.99
2018-10-09T02:01:58.138Z,99.99
2018-10-09T02:02:58.260Z,99.99
2018-10-09T02:03:58.457Z,99.99
2018-10-09T02:04:58.312Z,99.99
2018-10-09T02:05:58.274Z,99.99
2018-10-09T02:06:58.343Z,99.99
2018-10-09T02:07:58.453Z,99.99
2018-10-09T02:08:58.479Z,99.99
2018-10-09T02:09:58.569Z,99.99
2018-10-09T02:10:58.561Z,99.99
2018-10-09T02:11:58.563Z,99.99
2018-10-09T02:12:58.673Z,99.99
2018-10-09T02:13:58.719Z,99.99
2018-10-09T02:14:58.794Z,99.99
2018-10-09T02:15:58.856Z,99.99
2018-10-09T02:16:58.795Z,99.99
2018-10-09T02:17:58.889Z,98.96
2018-10-09T02:18:58.945Z,97.42
2018-10-09T02:19:58.983Z,95.12
2018-10-09T02:20:59.020Z,92.91
2018-10-09T02:21:59.270Z,91.94
2018-10-09T02:22:59.103Z,90.31
2018-10-09T02:23:59.102Z,88.48
2018-10-09T02:24:59.186Z,87.62
2018-10-09T02:25:59.238Z,85.78
2018-10-09T02:26:59.350Z,83.48
2018-10-09T02:27:59.511Z,81.17
2018-10-09T02:28:59.376Z,79.92
2018-10-09T02:29:59.393Z,79.05
2018-10-09T02:30:59.404Z,78.28
2018-10-09T02:31:59.542Z,78.00
2018-10-09T02:32:59.606Z,76.84
2018-10-09T02:33:59.956Z,76.07
2018-10-09T02:34:59.588Z,75.11
2018-10-09T02:35:59.672Z,74.15
2018-10-09T02:36:59.704Z,73.67
2018-10-09T02:37:59.809Z,73.28
2018-10-09T02:38:59.870Z,73.00
2018-10-09T02:39:59.800Z,71.46
2018-10-09T02:40:59.855Z,70.30
2018-10-09T02:41:59.904Z,70.01
2018-10-09T02:42:59.946Z,68.96
2018-10-09T02:43:59.974Z,67.71
2018-10-09T02:45:00.043Z,67.22
2018-10-09T02:46:00.082Z,66.65
2018-10-09T02:47:00.163Z,65.69
2018-10-09T02:48:00.146Z,65.30
2018-10-09T02:49:00.315Z,64.05
2018-10-09T02:50:00.245Z,62.99
2018-10-09T02:51:00.347Z,62.41
2018-10-09T02:52:00.328Z,61.55
2018-10-09T02:53:00.383Z,61.07
2018-10-09T02:54:00.418Z,60.49
2018-10-09T02:55:00.458Z,59.53
2018-10-09T02:56:00.598Z,58.67
2018-10-09T02:57:00.540Z,58.57
2018-10-09T02:58:00.603Z,57.22
2018-10-09T02:59:00.633Z,56.36
2018-10-09T03:00:00.676Z,55.88
2018-10-09T03:01:00.734Z,55.88
2018-10-09T03:02:00.862Z,55.30
2018-10-09T03:03:00.874Z,54.72
2018-10-09T03:04:00.871Z,54.14
2018-10-09T03:05:00.908Z,53.86
2018-10-09T03:06:00.943Z,54.14
2018-10-09T03:07:00.992Z,53.57
2018-10-09T03:08:01.120Z,53.28
2018-10-09T03:09:01.101Z,53.28
2018-10-09T03:10:01.160Z,52.70
2018-10-09T03:11:01.155Z,52.22
2018-10-09T03:12:01.220Z,51.84
2018-10-09T03:13:01.512Z,51.35
2018-10-09T03:14:01.292Z,51.64
2018-10-09T03:15:01.342Z,51.26
2018-10-09T03:16:01.423Z,51.26
2018-10-09T03:17:01.421Z,50.78
2018-10-09T03:18:01.496Z,50.49
2018-10-09T03:19:01.608Z,50.78
2018-10-09T03:20:01.543Z,50.68
2018-10-09T03:21:01.619Z,50.59
2018-10-09T03:22:01.655Z,50.01
2018-10-09T03:23:01.693Z,50.40
2018-10-09T03:24:01.773Z,49.24
2018-10-09T03:25:01.838Z,49.91
2018-10-09T03:26:01.831Z,48.95
2018-10-09T03:27:01.885Z,49.15
2018-10-09T03:28:01.916Z,48.66
2018-10-09T03:29:02.064Z,47.89
2018-10-09T03:30:02.026Z,48.28
2018-10-09T03:31:02.066Z,48.18
2018-10-09T03:32:02.142Z,47.61
2018-10-09T03:33:02.131Z,47.70
2018-10-09T03:34:02.244Z,46.84
2018-10-09T03:35:02.221Z,46.64
2018-10-09T03:36:02.279Z,45.20
2018-10-09T03:37:02.334Z,44.82
2018-10-09T03:38:02.394Z,44.34
2018-10-09T03:39:02.404Z,43.76
2018-10-09T03:40:02.471Z,42.89
2018-10-09T03:41:02.474Z,42.50
2018-10-09T03:42:02.625Z,42.22
2018-10-09T03:43:02.579Z,42.22
2018-10-09T03:44:02.645Z,41.35
2018-10-09T03:45:02.673Z,41.16
2018-10-09T03:46:02.731Z,40.78
2018-10-09T03:47:02.763Z,40.58
2018-10-09T03:48:02.815Z,40.39
2018-10-09T03:49:02.903Z,39.81
2018-10-09T03:50:02.920Z,39.72
2018-10-09T03:51:02.987Z,39.33
2018-10-09T03:52:03.011Z,38.66
2018-10-09T03:53:03.042Z,38.76
2018-10-09T03:54:03.116Z,38.56
2018-10-09T03:55:03.131Z,38.18
2018-10-09T03:56:03.163Z,37.89
2018-10-09T03:57:03.202Z,37.60
2018-10-09T03:58:03.275Z,37.41
2018-10-09T03:59:03.353Z,37.22
2018-10-09T04:00:03.350Z,37.12
2018-10-09T04:01:03.392Z,36.93
2018-10-09T04:02:03.438Z,36.74
2018-10-09T04:03:03.462Z,36.45
2018-10-09T04:04:03.516Z,36.45
2018-10-09T04:05:03.562Z,36.07
2018-10-09T04:06:03.606Z,35.97
2018-10-09T04:07:03.677Z,35.97
2018-10-09T04:08:03.693Z,35.77
2018-10-09T04:09:03.778Z,35.10
2018-10-09T04:10:03.792Z,35.30
2018-10-09T04:11:03.885Z,35.39
2018-10-09T04:12:03.925Z,35.77
2018-10-09T04:13:03.919Z,34.81
2018-10-09T04:14:04.089Z,34.62
2018-10-09T04:15:04.013Z,34.81
2018-10-09T04:16:04.052Z,34.72
2018-10-09T04:17:04.093Z,34.43
2018-10-09T04:18:04.140Z,34.53
2018-10-09T04:19:04.202Z,34.33
2018-10-09T04:20:04.528Z,34.53
2018-10-09T04:21:04.278Z,34.33
2018-10-09T04:22:04.341Z,33.75
2018-10-09T04:23:04.354Z,33.85
2018-10-09T04:24:04.398Z,33.85
2018-10-09T04:25:04.444Z,33.85
2018-10-09T04:26:04.533Z,33.85
2018-10-09T04:27:04.547Z,33.75
2018-10-09T04:28:04.602Z,33.37
2018-10-09T04:29:04.653Z,33.75
2018-10-09T04:30:04.677Z,33.18
2018-10-09T04:31:04.734Z,33.37
2018-10-09T04:32:04.857Z,33.28
2018-10-09T04:33:04.797Z,33.37
2018-10-09T04:34:04.857Z,33.18
2018-10-09T04:35:04.915Z,32.41
2018-10-09T04:36:04.940Z,32.51
2018-10-09T04:37:04.971Z,32.31
2018-10-09T04:38:05.052Z,32.21
2018-10-09T04:39:05.131Z,32.21
2018-10-09T04:40:05.131Z,32.31
2018-10-09T04:41:05.150Z,32.03
2018-10-09T04:42:05.289Z,32.03
2018-10-09T04:43:05.267Z,31.74
2018-10-09T04:44:05.367Z,31.74
2018-10-09T04:45:05.346Z,31.93
2018-10-09T04:46:05.389Z,31.83
2018-10-09T04:47:05.424Z,31.74
2018-10-09T04:48:05.522Z,31.64
2018-10-09T04:49:05.506Z,31.64
2018-10-09T04:50:05.577Z,31.45
2018-10-09T04:51:05.598Z,31.45
2018-10-09T04:52:05.755Z,31.54
2018-10-09T04:53:05.795Z,31.45
2018-10-09T04:54:05.724Z,31.45
2018-10-09T04:55:05.775Z,31.45
2018-10-09T04:56:05.816Z,31.26
2018-10-09T04:57:05.871Z,31.16
2018-10-09T04:58:05.915Z,31.35
2018-10-09T04:59:05.939Z,31.45
2018-10-09T05:00:06.013Z,31.26
2018-10-09T05:01:06.055Z,31.26
2018-10-09T05:02:06.379Z,31.06
2018-10-09T05:03:06.131Z,31.16
2018-10-09T05:04:06.149Z,31.16
2018-10-09T05:05:06.193Z,31.06
2018-10-09T05:06:06.254Z,31.26
2018-10-09T05:07:06.395Z,30.97
2018-10-09T05:08:06.338Z,31.26
2018-10-09T05:09:06.376Z,31.16
2018-10-09T05:10:06.444Z,31.16
2018-10-09T05:11:06.464Z,31.06
2018-10-09T05:12:06.518Z,31.06
2018-10-09T05:13:06.545Z,31.16
2018-10-09T05:14:06.621Z,31.16
2018-10-09T05:15:06.638Z,31.26
2018-10-09T05:16:06.692Z,31.16
2018-10-09T05:17:06.835Z,31.35
2018-10-09T05:18:06.778Z,31.16
2018-10-09T05:19:06.871Z,31.35
2018-10-09T05:20:06.876Z,31.16
2018-10-09T05:21:06.952Z,31.06
2018-10-09T05:22:06.973Z,31.06
2018-10-09T05:23:07.183Z,31.16
2018-10-09T05:24:07.054Z,31.06
2018-10-09T05:25:07.086Z,30.85
2018-10-09T05:26:07.132Z,30.68
2018-10-09T05:27:07.194Z,30.68
2018-10-09T05:28:07.224Z,30.68
2018-10-09T05:29:07.258Z,30.58
2018-10-09T05:30:07.294Z,30.47
2018-10-09T05:31:07.443Z,30.49
2018-10-09T05:32:07.373Z,30.10
2018-10-09T05:33:07.749Z,30.39
2018-10-09T05:34:07.481Z,30.19
2018-10-09T05:35:07.534Z,30.19
2018-10-09T05:36:07.574Z,29.51
2018-10-09T05:37:07.608Z,29.52
2018-10-09T05:38:07.650Z,29.33
2018-10-09T05:39:07.717Z,29.43
2018-10-09T05:40:07.775Z,29.52
2018-10-09T05:41:07.797Z,29.62
2018-10-09T05:42:07.822Z,29.52
2018-10-09T05:43:07.879Z,29.62
2018-10-09T05:44:08.063Z,29.43
2018-10-09T05:45:08.236Z,29.43
2018-10-09T05:46:08.008Z,29.43
2018-10-09T05:47:08.034Z,28.75
2018-10-09T05:48:08.081Z,28.84
2018-10-09T05:49:08.119Z,28.37
2018-10-09T05:50:08.252Z,28.85
2018-10-09T05:51:08.320Z,28.56
2018-10-09T05:52:08.273Z,27.89
2018-10-09T05:53:08.347Z,27.98
2018-10-09T05:54:08.358Z,27.98
2018-10-09T05:55:08.414Z,28.18
2018-10-09T05:56:08.460Z,27.97
2018-10-09T05:57:08.593Z,27.69
2018-10-09T05:58:08.745Z,27.60
2018-10-09T05:59:08.612Z,27.50
2018-10-09T06:00:08.643Z,27.70
2018-10-09T06:01:08.671Z,27.40
2018-10-09T06:02:08.719Z,27.50
2018-10-09T06:03:09.039Z,27.22
2018-10-09T06:04:08.798Z,27.12
2018-10-09T06:05:08.837Z,27.31
2018-10-09T06:06:08.870Z,27.40
2018-10-09T06:07:08.924Z,27.30
2018-10-09T06:08:08.965Z,27.40
2018-10-09T06:09:09.002Z,27.02
2018-10-09T06:10:09.046Z,27.20
2018-10-09T06:11:09.078Z,27.02
2018-10-09T06:12:09.147Z,26.64
2018-10-09T06:13:09.437Z,26.93
2018-10-09T06:14:09.231Z,26.83
2018-10-09T06:15:09.269Z,26.64
2018-10-09T06:16:09.322Z,26.53
2018-10-09T06:17:09.405Z,26.54
2018-10-09T06:18:09.417Z,26.06
2018-10-09T06:19:09.439Z,26.15
2018-10-09T06:20:09.537Z,26.25
2018-10-09T06:21:09.530Z,26.45
2018-10-09T06:22:09.661Z,25.78
2018-10-09T06:23:09.730Z,25.96
2018-10-09T06:24:09.692Z,26.15
2018-10-09T06:25:09.718Z,25.96
2018-10-09T06:26:09.776Z,26.16
2018-10-09T06:27:09.809Z,26.16
2018-10-09T06:28:09.950Z,26.25
2018-10-09T06:29:09.896Z,26.06
2018-10-09T06:30:10.044Z,26.06
2018-10-09T06:31:09.974Z,25.87
2018-10-09T06:32:10.024Z,25.87
2018-10-09T06:33:10.076Z,25.68
2018-10-09T06:34:10.190Z,25.78
2018-10-09T06:35:10.166Z,25.48
2018-10-09T06:36:10.182Z,25.68
2018-10-09T06:37:10.247Z,25.48
2018-10-09T06:38:10.298Z,25.48
2018-10-09T06:39:10.346Z,25.57
2018-10-09T06:40:10.394Z,25.47
2018-10-09T06:41:10.712Z,25.47
2018-10-09T06:42:10.568Z,25.28
2018-10-09T06:43:10.512Z,25.28
2018-10-09T06:44:10.555Z,25.18
2018-10-09T06:45:10.581Z,25.48
2018-10-09T06:46:10.649Z,25.39
2018-10-09T06:47:10.770Z,25.29
2018-10-09T06:48:10.755Z,25.29
2018-10-09T06:49:10.769Z,25.39
2018-10-09T06:50:10.806Z,25.39
2018-10-09T06:51:10.882Z,25.09
2018-10-09T06:52:10.947Z,25.20
2018-10-09T06:53:11.258Z,25.10
2018-10-09T06:54:11.055Z,25.10
2018-10-09T06:55:11.027Z,25.10
2018-10-09T06:56:11.079Z,25.29
2018-10-09T06:57:11.136Z,25.20
2018-10-09T06:58:11.226Z,25.29
2018-10-09T06:59:11.232Z,25.47
2018-10-09T07:00:11.336Z,25.39
2018-10-09T07:01:11.303Z,25.47
2018-10-09T07:02:11.341Z,25.29
2018-10-09T07:03:11.403Z,25.01
2018-10-09T07:04:11.714Z,25.20
2018-10-09T07:05:11.494Z,25.28
2018-10-09T07:06:11.545Z,25.10
2018-10-09T07:07:11.571Z,25.01
2018-10-09T07:08:11.618Z,24.91
2018-10-09T07:09:11.664Z,24.91
2018-10-09T07:10:11.719Z,24.90
2018-10-09T07:11:12.183Z,24.81
2018-10-09T07:12:11.790Z,24.51
2018-10-09T07:13:11.858Z,24.62
2018-10-09T07:14:11.927Z,24.80
2018-10-09T07:15:11.943Z,24.81
2018-10-09T07:16:12.089Z,24.81
2018-10-09T07:17:12.109Z,24.71
2018-10-09T07:18:12.071Z,24.71
2018-10-09T07:19:12.112Z,24.70
2018-10-09T07:20:12.172Z,24.62
2018-10-09T07:21:12.453Z,24.61
2018-10-09T07:22:12.241Z,24.81
2018-10-09T07:23:12.313Z,24.62
2018-10-09T07:24:12.317Z,24.91
2018-10-09T07:25:12.370Z,24.62
2018-10-09T07:26:12.394Z,24.62
2018-10-09T07:27:12.711Z,24.43
2018-10-09T07:28:12.477Z,24.52
2018-10-09T07:29:12.592Z,24.52
2018-10-09T07:30:12.598Z,24.62
2018-10-09T07:31:12.680Z,24.52
2018-10-09T07:32:12.661Z,24.52
2018-10-09T07:33:12.823Z,24.52
2018-10-09T07:34:12.811Z,24.52
2018-10-09T07:35:12.794Z,24.62
2018-10-09T07:36:12.864Z,24.52
2018-10-09T07:37:12.894Z,24.43
2018-10-09T07:38:13.205Z,24.62
2018-10-09T07:39:13.010Z,24.62
2018-10-09T07:40:13.051Z,24.43
2018-10-09T07:41:13.060Z,24.62
2018-10-09T07:42:13.134Z,24.62
2018-10-09T07:43:13.176Z,24.52
2018-10-09T07:44:13.242Z,24.33
2018-10-09T07:45:13.256Z,24.33
2018-10-09T07:46:13.308Z,24.33
2018-10-09T07:47:13.325Z,24.33
2018-10-09T07:48:13.719Z,24.43
2018-10-09T07:49:13.433Z,24.33
2018-10-09T07:50:13.461Z,24.43
2018-10-09T07:51:13.572Z,24.04
2018-10-09T07:52:13.685Z,24.04
2018-10-09T07:53:13.630Z,24.33
2018-10-09T07:54:14.143Z,23.94
2018-10-09T07:55:13.741Z,23.94
2018-10-09T07:56:13.778Z,23.94
2018-10-09T07:57:13.837Z,23.75
2018-10-09T07:58:13.822Z,23.66
2018-10-09T07:59:13.871Z,23.94
2018-10-09T08:00:13.927Z,23.56
2018-10-09T08:01:14.278Z,23.75
2018-10-09T08:02:14.012Z,23.66
2018-10-09T08:03:14.068Z,23.56
2018-10-09T08:04:14.114Z,23.74
2018-10-09T08:05:14.151Z,23.85
2018-10-09T08:06:14.209Z,23.85
2018-10-09T08:07:14.366Z,23.75
2018-10-09T08:08:14.303Z,23.18
2018-10-09T08:09:14.314Z,23.75
2018-10-09T08:10:14.418Z,23.94
2018-10-09T08:11:14.415Z,23.75
2018-10-09T08:12:14.459Z,23.74
2018-10-09T08:13:14.646Z,23.07
2018-10-09T08:14:14.559Z,23.27
2018-10-09T08:15:14.604Z,23.18
2018-10-09T08:16:14.672Z,23.16
2018-10-09T08:17:14.660Z,23.26
2018-10-09T08:18:14.702Z,23.36
2018-10-09T08:19:15.052Z,23.26
2018-10-09T08:20:14.851Z,23.46
2018-10-09T08:21:14.847Z,23.36
2018-10-09T08:22:14.903Z,23.16
2018-10-09T08:23:14.979Z,23.26
2018-10-09T08:24:15.089Z,23.55
2018-10-09T08:25:15.280Z,23.36
2018-10-09T08:26:15.055Z,23.07
2018-10-09T08:27:15.118Z,23.26
2018-10-09T08:28:15.159Z,23.26
2018-10-09T08:29:15.186Z,23.26
2018-10-09T08:30:15.259Z,23.07
2018-10-09T08:31:15.303Z,23.07
2018-10-09T08:32:15.401Z,23.16
2018-10-09T08:33:15.403Z,23.16
2018-10-09T08:34:15.415Z,22.97
2018-10-09T08:35:15.588Z,22.97
2018-10-09T08:36:15.563Z,23.07
2018-10-09T08:37:15.580Z,22.97
2018-10-09T08:38:15.608Z,22.97
2018-10-09T08:39:15.660Z,22.69
2018-10-09T08:40:15.810Z,22.88
2018-10-09T08:41:15.868Z,22.39
2018-10-09T08:42:15.781Z,22.39
2018-10-09T08:43:15.837Z,22.39
2018-10-09T08:44:15.912Z,22.59
2018-10-09T08:45:15.958Z,22.78
2018-10-09T08:46:15.974Z,22.59
2018-10-09T08:47:16.122Z,22.49
2018-10-09T08:48:16.099Z,22.49
2018-10-09T08:49:16.105Z,22.49
2018-10-09T08:50:16.137Z,22.49
2018-10-09T08:51:16.171Z,22.49
2018-10-09T08:52:16.242Z,22.78
2018-10-09T08:53:16.396Z,22.49
2018-10-09T08:54:16.366Z,22.59
2018-10-09T08:55:16.373Z,22.39
2018-10-09T08:56:16.414Z,22.49
2018-10-09T08:57:16.461Z,22.39
2018-10-09T08:58:16.500Z,22.49
2018-10-09T08:59:16.595Z,22.49
2018-10-09T09:00:16.650Z,22.20
2018-10-09T09:01:16.626Z,22.30
2018-10-09T09:02:16.725Z,22.11
2018-10-09T09:03:16.722Z,22.11
2018-10-09T09:04:16.755Z,22.11
2018-10-09T09:05:17.047Z,22.19
2018-10-09T09:06:16.857Z,22.29
2018-10-09T09:07:16.911Z,22.19
2018-10-09T09:08:16.950Z,22.11
2018-10-09T09:09:16.986Z,22.01
2018-10-09T09:10:17.127Z,22.11
2018-10-09T09:11:17.064Z,22.20
2018-10-09T09:12:17.113Z,22.11
2018-10-09T09:13:17.159Z,22.01
2018-10-09T09:14:17.231Z,22.39
2018-10-09T09:15:17.283Z,22.01
2018-10-09T09:16:17.287Z,22.11
2018-10-09T09:17:17.345Z,22.01
2018-10-09T09:18:17.375Z,22.20
2018-10-09T09:19:17.455Z,22.11
2018-10-09T09:20:17.484Z,22.11
2018-10-09T09:21:17.673Z,22.11
2018-10-09T09:22:17.556Z,22.01
2018-10-09T09:23:17.619Z,22.11
2018-10-09T09:24:17.665Z,21.92
2018-10-09T09:25:17.698Z,22.30
2018-10-09T09:26:17.801Z,22.20
2018-10-09T09:27:17.879Z,22.01
2018-10-09T09:28:17.896Z,22.20
2018-10-09T09:29:17.985Z,22.01
2018-10-09T09:30:17.940Z,22.30
2018-10-09T09:31:17.970Z,22.11
2018-10-09T09:32:18.063Z,22.30
2018-10-09T09:33:18.175Z,22.39
2018-10-09T09:34:18.120Z,22.39
2018-10-09T09:35:18.242Z,22.39
2018-10-09T09:36:18.212Z,22.30
2018-10-09T09:37:18.244Z,22.31
2018-10-09T09:38:18.296Z,22.31
2018-10-09T09:39:18.361Z,22.41
2018-10-09T09:40:18.474Z,22.12
2018-10-09T09:41:18.443Z,22.41
2018-10-09T09:42:18.521Z,22.22
2018-10-09T09:43:18.495Z,22.02
2018-10-09T09:44:18.557Z,22.12
2018-10-09T09:45:18.599Z,22.13
2018-10-09T09:46:18.824Z,22.03
2018-10-09T09:47:18.714Z,21.84
2018-10-09T09:48:18.744Z,21.45
2018-10-09T09:49:18.800Z,21.47
2018-10-09T09:50:18.857Z,21.94
2018-10-09T09:51:19.148Z,21.37
2018-10-09T09:52:18.936Z,21.37
2018-10-09T09:53:18.966Z,21.47
2018-10-09T09:54:19.013Z,21.27
2018-10-09T09:55:19.084Z,20.98
2018-10-09T09:56:19.120Z,20.98
2018-10-09T09:57:19.167Z,21.08
2018-10-09T09:58:19.373Z,20.89
2018-10-09T09:59:19.317Z,20.40
2018-10-09T10:00:19.309Z,20.01
2018-10-09T10:01:19.370Z,20.01
2018-10-09T10:02:19.447Z,20.01
2018-10-09T10:03:19.454Z,19.72
2018-10-09T10:04:19.501Z,19.92
2018-10-09T10:05:19.534Z,19.53
2018-10-09T10:06:19.610Z,20.01
2018-10-09T10:07:19.803Z,20.30
2018-10-09T10:08:19.684Z,20.97
2018-10-09T10:09:19.840Z,21.55
2018-10-09T10:10:19.789Z,22.80
2018-10-09T10:11:19.839Z,24.44
2018-10-09T10:12:19.884Z,25.88
2018-10-09T10:13:20.026Z,27.04
2018-10-09T10:14:20.016Z,28.86
2018-10-09T10:15:19.985Z,29.44
2018-10-09T10:16:20.074Z,31.18
2018-10-09T10:17:20.111Z,32.04
2018-10-09T10:18:20.251Z,32.52
2018-10-09T10:19:20.196Z,33.48
2018-10-09T10:20:20.278Z,34.06
2018-10-09T10:21:20.413Z,36.66
2018-10-09T10:22:20.367Z,38.10
2018-10-09T10:23:20.406Z,39.26
2018-10-09T10:24:20.448Z,39.16
2018-10-09T10:25:20.491Z,39.54
2018-10-09T10:26:20.520Z,39.45
2018-10-09T10:27:20.564Z,39.45
2018-10-09T10:28:20.619Z,40.80
2018-10-09T10:29:20.826Z,40.22
2018-10-09T10:30:20.723Z,40.89
2018-10-09T10:31:20.813Z,45.03
2018-10-09T10:32:20.802Z,50.13
2018-10-09T10:33:20.857Z,48.88
2018-10-09T10:34:20.924Z,48.79
2018-10-09T10:35:20.974Z,49.07
2018-10-09T10:36:21.001Z,48.88
2018-10-09T10:37:21.067Z,49.07
2018-10-09T10:38:21.104Z,49.46
2018-10-09T10:39:21.176Z,56.10
2018-10-09T10:40:21.302Z,61.49
2018-10-09T10:41:21.248Z,59.27
2018-10-09T10:42:21.273Z,61.77
2018-10-09T10:43:21.314Z,64.47
2018-10-09T10:44:21.361Z,62.83
2018-10-09T10:45:21.519Z,64.86
2018-10-09T10:46:21.482Z,71.01
2018-10-09T10:47:21.508Z,72.55
2018-10-09T10:48:21.608Z,74.19
2018-10-09T10:49:21.636Z,84.10
2018-10-09T10:50:21.669Z,86.41
2018-10-09T10:51:21.797Z,86.51
2018-10-09T10:52:21.723Z,87.56
2018-10-09T10:53:21.794Z,91.51
2018-10-09T10:54:21.826Z,92.28
2018-10-09T10:55:21.927Z,90.73
2018-10-09T10:56:22.190Z,91.60
2018-10-09T10:57:21.981Z,96.61
2018-10-09T10:58:22.017Z,93.62
2018-10-09T10:59:22.084Z,91.99
2018-10-09T11:00:22.121Z,99.11
2018-10-09T11:01:22.269Z,97.14
2018-10-09T11:02:22.228Z,95.89
2018-10-09T11:03:22.297Z,98.14
2018-10-09T11:04:22.317Z,96.80
2018-10-09T11:05:22.345Z,95.17
2018-10-09T11:06:22.412Z,93.72
2018-10-09T11:07:22.461Z,96.80
2018-10-09T11:08:22.777Z,98.10
2018-10-09T11:09:22.536Z,97.72
2018-10-09T11:10:22.587Z,98.19
2018-10-09T11:11:22.637Z,99.99
2018-10-09T11:12:22.681Z,99.99
2018-10-09T11:13:22.720Z,99.99
2018-10-09T11:14:22.793Z,99.99
2018-10-09T11:15:22.826Z,99.99
2018-10-09T11:16:22.855Z,99.99
2018-10-09T11:17:22.919Z,99.99
2018-10-09T11:18:22.973Z,99.99
2018-10-09T11:19:23.039Z,99.99
2018-10-09T11:20:23.056Z,99.99
2018-10-09T11:21:23.158Z,99.99
2018-10-09T11:22:23.142Z,99.99
2018-10-09T11:23:23.217Z,99.99
2018-10-09T11:24:23.247Z,99.99
2018-10-09T11:25:23.343Z,99.99
2018-10-09T11:26:23.327Z,99.99
2018-10-09T11:27:23.409Z,99.99
2018-10-09T11:28:23.437Z,99.99
2018-10-09T11:29:23.484Z,99.99
2018-10-09T11:30:23.520Z,99.99
2018-10-09T11:31:23.590Z,99.99
2018-10-09T11:32:23.662Z,99.99
2018-10-09T11:33:23.687Z,99.99
2018-10-09T11:34:23.762Z,99.99
2018-10-09T11:35:23.784Z,99.99
2018-10-09T11:36:23.829Z,99.99
2018-10-09T11:37:23.890Z,99.99
2018-10-09T11:38:23.920Z,99.99
2018-10-09T11:39:23.981Z,99.99
2018-10-09T11:40:24.033Z,99.99
2018-10-09T11:41:24.081Z,99.99
2018-10-09T11:42:24.133Z,99.99
2018-10-09T11:43:24.179Z,99.99
2018-10-09T11:44:24.243Z,99.99
2018-10-09T11:45:24.279Z,99.99
2018-10-09T11:46:24.313Z,99.99
2018-10-09T11:47:24.409Z,99.99
2018-10-09T11:48:24.438Z,99.99
2018-10-09T11:49:24.609Z,99.99
2018-10-09T11:50:24.519Z,99.99
2018-10-09T11:51:24.558Z,99.99
2018-10-09T11:52:24.618Z,99.99
2018-10-09T11:53:24.689Z,99.99
2018-10-09T11:54:24.727Z,99.99
2018-10-09T11:55:24.882Z,99.99
2018-10-09T11:56:24.822Z,99.99
2018-10-09T11:57:24.859Z,99.99
2018-10-09T11:58:24.960Z,99.99
2018-10-09T11:59:24.986Z,99.99
2018-10-09T12:00:25.019Z,99.99
2018-10-09T12:01:25.053Z,99.99
2018-10-09T12:02:25.136Z,99.99
2018-10-09T12:03:25.213Z,99.99
2018-10-09T12:04:25.238Z,99.99
2018-10-09T12:05:25.281Z,99.99
2018-10-09T12:06:25.344Z,99.99
2018-10-09T12:07:25.386Z,99.99
2018-10-09T12:08:25.438Z,99.99
2018-10-09T12:09:25.525Z,99.99
2018-10-09T12:10:25.528Z,99.99
2018-10-09T12:11:25.596Z,99.99
2018-10-09T12:12:25.729Z,99.99
2018-10-09T12:13:25.717Z,99.99
2018-10-09T12:14:25.744Z,99.99
2018-10-09T12:15:25.798Z,99.99
2018-10-09T12:16:25.845Z,99.99
2018-10-09T12:17:25.923Z,99.99
2018-10-09T12:18:25.929Z,99.99
2018-10-09T12:19:26.026Z,99.99
2018-10-09T12:20:26.073Z,99.99
2018-10-09T12:21:26.212Z,99.99
2018-10-09T12:22:26.176Z,99.99
2018-10-09T12:23:26.349Z,99.99
2018-10-09T12:24:26.288Z,99.99
2018-10-09T12:25:26.326Z,99.99
2018-10-09T12:26:26.391Z,99.99
2018-10-09T12:27:26.451Z,99.99
2018-10-09T12:28:26.613Z,99.99
2018-10-09T12:29:26.558Z,99.99
2018-10-09T12:30:26.650Z,99.99
2018-10-09T12:31:26.673Z,99.99
2018-10-09T12:32:26.725Z,99.99
2018-10-09T12:33:26.803Z,99.99
2018-10-09T12:34:26.847Z,99.99
2018-10-09T12:35:26.942Z,99.99
2018-10-09T12:36:26.950Z,99.99
2018-10-09T12:37:27.025Z,99.99
2018-10-09T12:38:27.089Z,99.99
2018-10-09T12:39:27.112Z,99.99
2018-10-09T12:40:27.348Z,99.99
2018-10-09T12:41:27.220Z,99.99
2018-10-09T12:42:27.278Z,99.99
2018-10-09T12:43:27.338Z,99.99
2018-10-09T12:44:27.536Z,99.99
2018-10-09T12:45:27.475Z,99.99
2018-10-09T12:46:27.509Z,99.99
2018-10-09T12:47:27.593Z,99.99
2018-10-09T12:48:27.635Z,99.99
2018-10-09T12:49:27.675Z,99.99
2018-10-09T12:50:27.740Z,99.99
2018-10-09T12:51:27.855Z,99.99
2018-10-09T12:52:27.876Z,99.99
2018-10-09T12:53:27.905Z,99.99